Time;durP1;ratioP1;P1;durP2;ratioP2;P2;SDS_P1;SDS_P2;PMS_P1;PMS_P2;Temp;Humidity;BMP_temperature;BMP_pressure;BME280_temperature;BME280_humidity;BME280_pressure;Samples;Min_cycle;Max_cycle;Signal;HPM_P1;HPM_P2
2023/05/05 00:00:31;;;;;;;14.07;9.90;;;;;;;16.64;90.62;101273.81;4987747;28;20073;-65
2023/05/05 00:02:57;;;;;;;11.43;8.77;;;;;;;16.61;89.31;101278.97;4988310;28;20482;-65
2023/05/05 00:05:24;;;;;;;9.38;8.52;;;;;;;16.58;91.56;101281.56;4973431;28;20031;-65
2023/05/05 00:07:49;;;;;;;10.57;9.50;;;;;;;16.55;91.44;101278.03;4976453;28;20410;-64
2023/05/05 00:10:14;;;;;;;10.15;9.15;;;;;;;16.50;93.84;101271.88;4975717;28;20021;-65
2023/05/05 00:12:40;;;;;;;10.15;8.55;;;;;;;16.46;93.97;101272.66;4979742;28;20034;-65
2023/05/05 00:15:06;;;;;;;10.38;9.32;;;;;;;16.42;94.54;101271.75;4980201;28;20431;-65
2023/05/05 00:17:31;;;;;;;13.30;9.93;;;;;;;16.39;94.15;101279.56;4979494;28;20022;-65
2023/05/05 00:19:58;;;;;;;14.20;10.40;;;;;;;16.38;94.95;101293.50;4979784;28;20025;-65
2023/05/05 00:22:24;;;;;;;19.63;9.70;;;;;;;16.37;95.06;101288.25;4980157;28;20040;-65
2023/05/05 00:24:49;;;;;;;14.43;10.45;;;;;;;16.36;95.60;101287.38;4979455;28;20101;-65
2023/05/05 00:27:14;;;;;;;11.27;10.23;;;;;;;16.35;96.87;101290.84;4980379;28;20022;-65
2023/05/05 00:29:39;;;;;;;11.15;10.15;;;;;;;16.33;97.69;101290.81;4979086;28;20019;-65
2023/05/05 00:32:06;;;;;;;12.15;10.27;;;;;;;16.31;98.33;101292.53;4985871;28;20023;-65
2023/05/05 00:34:31;;;;;;;12.30;11.20;;;;;;;16.30;99.68;101289.88;4979758;28;20023;-65
2023/05/05 00:36:57;;;;;;;11.43;10.30;;;;;;;16.27;98.92;101301.19;4963187;28;20108;-65
2023/05/05 00:39:23;;;;;;;13.15;10.68;;;;;;;16.27;99.74;101295.94;4979414;28;20030;-66
2023/05/05 00:41:48;;;;;;;12.35;11.30;;;;;;;16.24;100.00;101282.84;4980728;28;20471;-67
2023/05/05 00:44:13;;;;;;;12.32;11.13;;;;;;;16.22;100.00;101287.16;4984549;28;20030;-65
2023/05/05 00:46:40;;;;;;;12.45;11.27;;;;;;;16.19;100.00;101297.56;4986605;28;20049;-65
2023/05/05 00:49:18;;;;;;;12.68;11.57;;;;;;;16.14;100.00;101296.59;4977211;28;20491;-65
2023/05/05 00:51:43;;;;;;;12.40;11.13;;;;;;;16.10;100.00;101300.03;4975737;28;20018;-65
2023/05/05 00:54:11;;;;;;;13.63;12.23;;;;;;;16.07;100.00;101304.34;4972569;28;20182;-65
2023/05/05 00:56:37;;;;;;;12.70;11.45;;;;;;;16.05;100.00;101302.56;4972540;28;20531;-65
2023/05/05 00:59:03;;;;;;;13.32;11.80;;;;;;;16.00;100.00;101312.94;4985204;28;20572;-65
2023/05/05 01:01:28;;;;;;;13.65;12.25;;;;;;;15.97;100.00;101308.50;4972361;28;20118;-65
2023/05/05 01:03:54;;;;;;;15.68;13.23;;;;;;;15.94;100.00;101302.34;4972658;28;20141;-65
2023/05/05 01:06:44;;;;;;;14.32;12.95;;;;;;;15.89;100.00;101294.44;4982254;28;20022;-65
2023/05/05 01:09:23;;;;;;;14.98;13.50;;;;;;;15.85;100.00;101300.44;4990780;28;20045;-65
2023/05/05 01:12:18;;;;;;;14.82;13.48;;;;;;;15.83;100.00;101310.88;4991100;28;20390;-65
2023/05/05 01:14:51;;;;;;;14.43;13.13;;;;;;;15.79;100.00;101308.19;4971566;28;20042;-66
2023/05/05 01:17:20;;;;;;;14.48;13.00;;;;;;;15.73;100.00;101315.06;4971936;28;20030;-65
2023/05/05 01:20:01;;;;;;;15.07;12.48;;;;;;;15.71;100.00;101305.44;4980008;28;20596;-65
2023/05/05 01:22:35;;;;;;;14.98;13.60;;;;;;;15.64;100.00;101319.22;4990729;28;20026;-65
2023/05/05 01:25:19;;;;;;;14.82;13.48;;;;;;;15.53;100.00;101316.41;4979300;28;20033;-65
2023/05/05 01:28:15;;;;;;;15.77;14.27;;;;;;;15.45;100.00;101324.97;4971365;28;20073;-65
2023/05/05 01:31:05;;;;;;;14.85;13.35;;;;;;;15.40;100.00;101325.78;4971352;28;20018;-65
2023/05/05 01:33:35;;;;;;;14.05;12.73;;;;;;;15.36;100.00;101315.25;4972139;28;20057;-65
2023/05/05 01:36:12;;;;;;;15.15;13.70;;;;;;;15.33;100.00;101307.34;4972463;28;20078;-64
2023/05/05 01:38:41;;;;;;;15.43;13.70;;;;;;;15.32;100.00;101300.38;4976827;28;20486;-65
2023/05/05 01:41:09;;;;;;;14.70;13.32;;;;;;;15.31;100.00;101302.97;4978550;28;20027;-65
2023/05/05 01:43:36;;;;;;;15.15;13.65;;;;;;;15.28;100.00;101306.38;4976666;28;20042;-65
2023/05/05 01:46:03;;;;;;;13.77;12.48;;;;;;;15.22;100.00;101311.47;4961304;28;20027;-65
2023/05/05 01:48:29;;;;;;;13.98;12.63;;;;;;;15.18;100.00;101313.13;4990030;28;20084;-65
2023/05/05 01:50:56;;;;;;;13.45;12.15;;;;;;;15.10;100.00;101309.50;4990406;28;20023;-66
2023/05/05 01:53:24;;;;;;;14.13;12.80;;;;;;;15.03;100.00;101295.44;4971220;28;20054;-65
2023/05/05 01:55:51;;;;;;;13.98;12.60;;;;;;;14.94;100.00;101305.69;4971243;28;20483;-65
2023/05/05 01:58:17;;;;;;;15.95;14.27;;;;;;;14.85;100.00;101309.88;4971402;28;20494;-65
2023/05/05 02:00:43;;;;;;;14.95;13.55;;;;;;;14.83;100.00;101308.94;4987160;28;20026;-66
2023/05/05 02:03:11;;;;;;;15.07;13.52;;;;;;;14.76;100.00;101307.03;4963331;28;20601;-65
2023/05/05 02:05:38;;;;;;;14.75;13.45;;;;;;;14.70;100.00;101318.19;4971438;28;20019;-65
2023/05/05 02:08:05;;;;;;;14.88;13.10;;;;;;;14.64;100.00;101313.72;4970288;28;20082;-66
2023/05/05 02:10:31;;;;;;;14.98;13.48;;;;;;;14.56;100.00;101314.38;4982798;28;20471;-65
2023/05/05 02:12:59;;;;;;;13.68;12.30;;;;;;;14.49;100.00;101311.66;4977584;28;20029;-65
2023/05/05 02:15:27;;;;;;;11.40;10.25;;;;;;;14.41;100.00;101316.69;4990134;28;20052;-65
2023/05/05 02:17:54;;;;;;;11.77;10.63;;;;;;;14.36;100.00;101317.41;4989422;28;20018;-65
2023/05/05 02:20:21;;;;;;;12.27;11.05;;;;;;;14.29;100.00;101316.38;4977482;28;20053;-65
2023/05/05 02:22:46;;;;;;;11.23;10.13;;;;;;;14.23;100.00;101316.25;4989264;28;20014;-65
2023/05/05 02:25:12;;;;;;;10.05;8.77;;;;;;;14.16;100.00;101321.28;4988694;28;20037;-65
2023/05/05 02:27:41;;;;;;;10.57;8.93;;;;;;;14.09;100.00;101323.69;4988826;28;20022;-65
2023/05/05 02:30:09;;;;;;;8.20;7.50;;;;;;;14.05;100.00;101327.94;4988590;28;20454;-65
2023/05/05 02:32:39;;;;;;;8.05;7.07;;;;;;;14.00;100.00;101334.78;4989609;28;20022;-65
2023/05/05 02:35:18;;;;;;;7.47;6.78;;;;;;;13.95;100.00;101339.88;4988395;28;20093;-65
2023/05/05 02:37:48;;;;;;;7.72;6.90;;;;;;;13.89;100.00;101338.00;4972121;28;20117;-65
2023/05/05 02:40:18;;;;;;;7.15;6.43;;;;;;;13.85;100.00;101335.28;4988445;28;20072;-65
2023/05/05 02:42:46;;;;;;;7.35;6.75;;;;;;;13.79;100.00;101336.88;4989262;28;20042;-65
2023/05/05 02:45:16;;;;;;;6.97;6.28;;;;;;;13.77;100.00;101337.66;4988906;28;20031;-66
2023/05/05 02:47:41;;;;;;;7.63;6.93;;;;;;;13.71;100.00;101342.72;4988967;28;20037;-65
2023/05/05 02:50:07;;;;;;;8.77;6.05;;;;;;;13.62;100.00;101344.22;4988212;28;20058;-65
2023/05/05 02:52:34;;;;;;;7.55;6.90;;;;;;;13.59;100.00;101353.66;4986652;28;20027;-65
2023/05/05 02:55:00;;;;;;;7.53;6.82;;;;;;;13.56;100.00;101349.28;4979423;28;20034;-65
2023/05/05 02:57:34;;;;;;;8.32;7.25;;;;;;;13.51;100.00;101350.84;4968683;28;20118;-65
2023/05/05 03:00:12;;;;;;;8.57;7.78;;;;;;;13.42;100.00;101347.13;4980428;28;20105;-65
2023/05/05 03:02:55;;;;;;;8.88;8.07;;;;;;;13.38;100.00;101354.81;4970801;28;20023;-65
2023/05/05 03:05:29;;;;;;;9.82;8.80;;;;;;;13.31;100.00;101353.75;4970451;28;20034;-65
2023/05/05 03:08:02;;;;;;;12.10;9.95;;;;;;;13.26;100.00;101342.34;4970286;28;20361;-65
2023/05/05 03:10:30;;;;;;;10.18;9.13;;;;;;;13.20;100.00;101341.28;4969702;28;20357;-65
2023/05/05 03:12:58;;;;;;;11.27;10.18;;;;;;;13.15;100.00;101337.66;4975473;28;20047;-65
2023/05/05 03:15:40;;;;;;;12.05;10.88;;;;;;;13.13;100.00;101347.16;4987954;28;20054;-65
2023/05/05 03:18:07;;;;;;;12.43;11.20;;;;;;;13.08;100.00;101348.72;4988846;28;20114;-65
2023/05/05 03:20:33;;;;;;;14.25;12.85;;;;;;;13.07;100.00;101352.19;4988354;28;20109;-65
2023/05/05 03:23:00;;;;;;;13.70;12.40;;;;;;;13.05;100.00;101351.25;4988956;28;20026;-65
2023/05/05 03:25:45;;;;;;;13.38;12.07;;;;;;;13.03;100.00;101345.13;4987853;28;20022;-66
2023/05/05 03:28:11;;;;;;;13.93;12.60;;;;;;;13.03;100.00;101359.00;4989193;28;20049;-65
2023/05/05 03:30:36;;;;;;;13.35;11.95;;;;;;;13.03;100.00;101368.53;4987242;28;20018;-65
2023/05/05 03:33:02;;;;;;;14.35;12.95;;;;;;;13.02;100.00;101369.38;4988648;28;20468;-65
2023/05/05 03:35:27;;;;;;;14.85;13.43;;;;;;;13.00;100.00;101363.25;4987770;28;20018;-64
2023/05/05 03:37:54;;;;;;;15.48;13.88;;;;;;;13.00;100.00;101360.63;4989243;28;20472;-64
2023/05/05 03:40:20;;;;;;;15.20;13.50;;;;;;;12.97;100.00;101359.69;4988318;28;20105;-64
2023/05/05 03:42:45;;;;;;;14.30;12.80;;;;;;;12.99;100.00;101356.28;4988174;28;20428;-64
2023/05/05 03:45:10;;;;;;;14.73;13.02;;;;;;;12.99;100.00;101356.28;4982110;28;20379;-64
2023/05/05 03:47:36;;;;;;;15.15;13.57;;;;;;;12.98;100.00;101355.38;4982064;28;20088;-64
2023/05/05 03:50:01;;;;;;;14.93;12.57;;;;;;;12.95;100.00;101361.38;4988048;28;20468;-64
2023/05/05 03:52:26;;;;;;;13.85;12.55;;;;;;;12.93;100.00;101362.19;4985997;28;20077;-64
2023/05/05 03:54:53;;;;;;;14.50;13.00;;;;;;;12.92;100.00;101365.59;4968481;28;20019;-64
2023/05/05 03:57:18;;;;;;;14.38;12.98;;;;;;;12.90;100.00;101365.56;4979839;28;20033;-63
2023/05/05 03:59:43;;;;;;;14.82;13.35;;;;;;;12.90;100.00;101362.94;4967077;28;20019;-65
2023/05/05 04:02:08;;;;;;;14.68;13.05;;;;;;;12.88;100.00;101372.41;4982314;28;20501;-64
2023/05/05 04:04:34;;;;;;;13.70;12.30;;;;;;;12.86;100.00;101376.72;4987314;28;20145;-63
2023/05/05 04:06:59;;;;;;;14.15;12.75;;;;;;;12.84;100.00;101373.19;4980392;28;20513;-63
2023/05/05 04:09:24;;;;;;;14.73;13.27;;;;;;;12.82;100.00;101370.53;4971946;28;20097;-63
2023/05/05 04:11:50;;;;;;;13.95;12.65;;;;;;;12.80;100.00;101381.72;4968894;28;20027;-64
2023/05/05 04:14:15;;;;;;;13.55;12.15;;;;;;;12.77;100.00;101381.63;4968848;28;20106;-63
2023/05/05 04:16:40;;;;;;;13.65;12.45;;;;;;;12.71;100.00;101385.78;4979254;28;20131;-63
2023/05/05 04:19:06;;;;;;;13.85;12.45;;;;;;;12.71;100.00;101390.09;4971813;28;20030;-66
2023/05/05 04:21:31;;;;;;;14.15;12.75;;;;;;;12.67;100.00;101390.84;4974984;28;20116;-66
2023/05/05 04:23:57;;;;;;;13.70;11.90;;;;;;;12.66;100.00;101399.47;4968809;28;20154;-67
2023/05/05 04:26:22;;;;;;;13.02;11.77;;;;;;;12.64;100.00;101396.84;4969093;28;20034;-66
2023/05/05 04:28:47;;;;;;;12.90;11.70;;;;;;;12.61;100.00;101396.72;4972400;28;20508;-64
2023/05/05 04:31:13;;;;;;;12.73;11.50;;;;;;;12.59;100.00;101393.19;4982560;28;20031;-66
2023/05/05 04:33:38;;;;;;;12.98;11.48;;;;;;;12.56;100.00;101387.88;4979083;28;20101;-66
2023/05/05 04:36:03;;;;;;;12.23;10.75;;;;;;;12.55;100.00;101396.53;4992266;28;20457;-64
2023/05/05 04:38:29;;;;;;;12.45;11.25;;;;;;;12.55;100.00;101396.53;4991211;28;20018;-66
2023/05/05 04:40:54;;;;;;;12.65;11.45;;;;;;;12.57;100.00;101407.88;4991686;28;20030;-65
2023/05/05 04:43:19;;;;;;;12.65;11.38;;;;;;;12.58;100.00;101404.41;4991181;28;20431;-64
2023/05/05 04:45:52;;;;;;;12.65;11.35;;;;;;;12.59;100.00;101395.81;4992024;28;20030;-64
2023/05/05 04:48:19;;;;;;;15.82;11.57;;;;;;;12.60;100.00;101395.84;4991218;28;20046;-65
2023/05/05 04:50:45;;;;;;;12.57;11.45;;;;;;;12.62;100.00;101393.28;4991815;28;20776;-63
2023/05/05 04:53:10;;;;;;;12.38;11.18;;;;;;;12.64;100.00;101402.03;4984055;28;20034;-63
2023/05/05 04:55:35;;;;;;;11.73;10.50;;;;;;;12.67;100.00;101399.53;4973300;28;20031;-64
2023/05/05 04:58:01;;;;;;;13.80;11.30;;;;;;;12.69;100.00;101395.25;4992258;28;20561;-64
2023/05/05 05:00:26;;;;;;;12.80;11.57;;;;;;;12.69;100.00;101395.25;4991187;28;20026;-64
2023/05/05 05:02:52;;;;;;;12.52;11.32;;;;;;;12.67;100.00;101394.31;4984075;28;20029;-64
2023/05/05 05:05:17;;;;;;;14.63;11.38;;;;;;;12.67;100.00;101396.94;4985827;28;20077;-64
2023/05/05 05:07:42;;;;;;;11.98;10.85;;;;;;;12.66;100.00;101395.16;4974006;28;20212;-64
2023/05/05 05:10:08;;;;;;;12.18;10.95;;;;;;;12.66;100.00;101395.16;4978011;28;20491;-64
2023/05/05 05:12:33;;;;;;;12.35;11.02;;;;;;;12.66;100.00;101391.69;4986493;28;20026;-64
2023/05/05 05:14:59;;;;;;;12.02;10.82;;;;;;;12.67;100.00;101390.84;4991836;28;20150;-64
2023/05/05 05:17:25;;;;;;;12.40;11.13;;;;;;;12.66;100.00;101389.06;4980814;28;20026;-64
2023/05/05 05:19:51;;;;;;;11.27;10.27;;;;;;;12.65;100.00;101380.38;4981947;28;20026;-63
2023/05/05 05:22:16;;;;;;;12.57;11.38;;;;;;;12.66;100.00;101384.78;4976527;28;20030;-64
2023/05/05 05:24:41;;;;;;;11.43;10.32;;;;;;;12.70;100.00;101386.63;4974486;28;20430;-66
2023/05/05 05:27:08;;;;;;;12.85;11.38;;;;;;;12.73;100.00;101386.75;4979704;28;20022;-66
2023/05/05 05:29:33;;;;;;;13.20;11.93;;;;;;;12.76;100.00;101391.13;4981623;28;20039;-64
2023/05/05 05:31:59;;;;;;;13.98;12.48;;;;;;;12.80;100.00;101402.50;4976653;28;20061;-64
2023/05/05 05:34:24;;;;;;;12.40;11.20;;;;;;;12.86;100.00;101397.53;4974308;28;20035;-64
2023/05/05 05:36:49;;;;;;;12.70;11.50;;;;;;;12.92;100.00;101392.50;4976953;28;20027;-66
2023/05/05 05:39:14;;;;;;;12.68;11.57;;;;;;;13.00;100.00;101391.84;4973356;28;20033;-64
2023/05/05 05:41:40;;;;;;;14.20;13.00;;;;;;;13.07;100.00;101399.00;4986895;28;20376;-64
2023/05/05 05:44:05;;;;;;;13.13;11.98;;;;;;;13.19;100.00;101396.78;4980997;28;20030;-64
2023/05/05 05:46:30;;;;;;;13.45;12.15;;;;;;;13.32;100.00;101402.34;4986860;28;20027;-65
2023/05/05 05:48:56;;;;;;;14.02;12.63;;;;;;;13.44;100.00;101404.41;4987272;28;20046;-66
2023/05/05 05:51:21;;;;;;;12.80;11.50;;;;;;;13.55;100.00;101418.69;4982909;28;20015;-65
2023/05/05 05:53:46;;;;;;;13.63;12.43;;;;;;;13.68;100.00;101432.06;4972647;28;20045;-65
2023/05/05 05:56:12;;;;;;;13.02;11.73;;;;;;;13.79;100.00;101445.38;4980491;28;20026;-64
2023/05/05 05:58:37;;;;;;;12.30;11.20;;;;;;;13.92;100.00;101460.50;4983829;28;20057;-66
2023/05/05 06:01:03;;;;;;;12.10;11.00;;;;;;;14.06;100.00;101457.41;4982665;28;20109;-65
2023/05/05 06:03:29;;;;;;;13.13;11.82;;;;;;;14.21;100.00;101459.53;4983423;28;20030;-65
2023/05/05 06:05:55;;;;;;;12.00;10.90;;;;;;;14.30;100.00;101474.56;4985517;28;20018;-65
2023/05/05 06:08:20;;;;;;;12.43;11.00;;;;;;;14.37;100.00;101476.47;4975094;28;20301;-65
2023/05/05 06:10:47;;;;;;;12.20;10.93;;;;;;;14.38;100.00;101482.56;4983270;28;20036;-65
2023/05/05 06:13:12;;;;;;;12.65;11.35;;;;;;;14.44;100.00;101472.31;4975910;28;20069;-65
2023/05/05 06:15:38;;;;;;;11.75;10.55;;;;;;;14.56;100.00;101469.13;4985367;28;20323;-65
2023/05/05 06:18:03;;;;;;;10.82;9.75;;;;;;;14.73;100.00;101473.91;4989547;28;20034;-65
2023/05/05 06:20:28;;;;;;;11.00;10.00;;;;;;;14.89;100.00;101470.84;4980322;28;20037;-64
2023/05/05 06:22:54;;;;;;;15.02;12.95;;;;;;;15.06;100.00;101467.75;4978568;28;20125;-65
2023/05/05 06:25:19;;;;;;;12.57;11.18;;;;;;;15.22;100.00;101478.53;4983316;28;20030;-64
2023/05/05 06:27:45;;;;;;;14.00;12.50;;;;;;;15.38;100.00;101478.91;4988133;28;20054;-64
2023/05/05 06:30:10;;;;;;;16.05;13.35;;;;;;;15.49;100.00;101474.78;4983936;28;20371;-67
2023/05/05 06:32:36;;;;;;;15.50;12.85;;;;;;;15.66;100.00;101474.28;4988276;28;20022;-64
2023/05/05 06:35:02;;;;;;;15.18;12.90;;;;;;;15.77;100.00;101483.22;4986015;28;20030;-64
2023/05/05 06:37:27;;;;;;;15.85;14.15;;;;;;;15.83;100.00;101472.88;4988210;28;20026;-64
2023/05/05 06:39:52;;;;;;;15.25;13.07;;;;;;;16.00;100.00;101475.00;4984771;28;20386;-65
2023/05/05 06:42:17;;;;;;;15.30;13.55;;;;;;;16.18;100.00;101474.47;4972925;28;20274;-65
2023/05/05 06:44:43;;;;;;;15.00;13.40;;;;;;;16.38;100.00;101478.28;4975628;28;20068;-65
2023/05/05 06:47:08;;;;;;;14.98;12.95;;;;;;;16.59;100.00;101469.03;4973238;28;20041;-65
2023/05/05 06:49:33;;;;;;;15.23;12.13;;;;;;;16.79;100.00;101472.00;4974331;28;20092;-65
2023/05/05 06:51:58;;;;;;;12.30;11.00;;;;;;;16.99;100.00;101474.06;4978858;28;20118;-65
2023/05/05 06:54:24;;;;;;;11.85;10.65;;;;;;;17.13;100.00;101472.56;4972665;28;20085;-65
2023/05/05 06:56:49;;;;;;;12.48;10.82;;;;;;;17.32;100.00;101479.81;4981408;28;20210;-65
2023/05/05 06:59:14;;;;;;;13.20;11.30;;;;;;;17.42;100.00;101473.81;4982801;28;20034;-65
2023/05/05 07:01:40;;;;;;;11.52;10.40;;;;;;;17.61;100.00;101476.72;4976612;28;20034;-65
2023/05/05 07:04:05;;;;;;;13.65;10.90;;;;;;;17.71;100.00;101475.94;4975934;28;20027;-65
2023/05/05 07:06:31;;;;;;;10.15;9.07;;;;;;;17.95;100.00;101478.84;4978671;28;20029;-65
2023/05/05 07:08:57;;;;;;;10.73;9.10;;;;;;;18.18;98.15;101483.50;4980576;28;20026;-65
2023/05/05 07:11:22;;;;;;;10.45;8.65;;;;;;;18.27;94.61;101486.22;4987402;28;20488;-64
2023/05/05 07:13:48;;;;;;;8.60;7.78;;;;;;;18.40;93.05;101476.72;4969284;28;20028;-65
2023/05/05 07:16:13;;;;;;;9.45;8.45;;;;;;;18.60;90.54;101486.53;4976976;28;20534;-64
2023/05/05 07:18:38;;;;;;;11.73;8.63;;;;;;;18.75;91.48;101490.13;4977877;28;20045;-65
2023/05/05 07:21:05;;;;;;;8.85;7.80;;;;;;;18.96;89.07;101492.91;4980298;28;20117;-65
2023/05/05 07:23:30;;;;;;;9.23;7.43;;;;;;;19.10;84.36;101493.88;4985847;28;20030;-65
2023/05/05 07:25:56;;;;;;;8.02;7.22;;;;;;;19.14;84.13;101496.56;4950346;28;20077;-65
2023/05/05 07:28:21;;;;;;;7.75;6.93;;;;;;;19.41;84.66;101497.59;4979831;28;20093;-65
2023/05/05 07:30:47;;;;;;;8.52;7.28;;;;;;;19.62;83.42;101498.59;4978935;28;20033;-65
2023/05/05 07:33:13;;;;;;;8.13;7.03;;;;;;;19.68;81.16;101505.63;4979698;28;20026;-65
2023/05/05 07:35:38;;;;;;;8.10;6.00;;;;;;;19.55;81.96;101502.06;4986019;28;20036;-65
2023/05/05 07:38:04;;;;;;;7.25;6.43;;;;;;;19.48;83.54;101497.66;4968323;28;20030;-65
2023/05/05 07:40:29;;;;;;;7.88;5.10;;;;;;;19.35;82.43;101494.97;4969890;28;20080;-65
2023/05/05 07:42:54;;;;;;;6.57;5.30;;;;;;;19.17;82.28;101491.34;4986603;28;20486;-65
2023/05/05 07:45:20;;;;;;;9.05;5.32;;;;;;;19.00;81.21;101490.31;4986826;28;20030;-65
2023/05/05 07:47:45;;;;;;;7.18;5.85;;;;;;;18.88;85.40;101488.47;4987647;28;20109;-65
2023/05/05 07:50:10;;;;;;;6.45;5.47;;;;;;;18.72;83.55;101489.25;4979848;28;20488;-65
2023/05/05 07:52:36;;;;;;;6.75;5.57;;;;;;;18.51;87.15;101489.06;4974571;28;20085;-65
2023/05/05 07:55:01;;;;;;;6.88;5.82;;;;;;;18.55;89.13;101485.59;4976406;28;20077;-65
2023/05/05 07:57:27;;;;;;;7.50;5.63;;;;;;;18.68;89.53;101482.22;4981750;28;20458;-65
2023/05/05 07:59:52;;;;;;;6.88;5.57;;;;;;;18.79;87.39;101484.03;4978795;28;20061;-65
2023/05/05 08:02:18;;;;;;;7.22;5.60;;;;;;;18.87;86.51;101479.72;4984494;28;20027;-65
2023/05/05 08:04:43;;;;;;;8.75;6.05;;;;;;;18.93;85.32;101478.88;4979342;28;20018;-65
2023/05/05 08:07:09;;;;;;;8.77;6.07;;;;;;;19.10;86.66;101484.28;4982628;28;20029;-65
2023/05/05 08:09:36;;;;;;;6.18;5.60;;;;;;;19.53;85.58;101482.78;4987162;28;20497;-65
2023/05/05 08:12:02;;;;;;;6.25;5.20;;;;;;;19.66;79.30;101475.84;4987131;28;20093;-65
2023/05/05 08:14:28;;;;;;;7.50;6.05;;;;;;;20.06;81.47;101485.63;4986398;28;20050;-65
2023/05/05 08:16:54;;;;;;;6.85;5.72;;;;;;;20.40;75.72;101488.31;4984725;28;20030;-65
2023/05/05 08:19:19;;;;;;;5.05;4.55;;;;;;;20.23;71.75;101495.31;4986086;28;20162;-65
2023/05/05 08:21:44;;;;;;;7.50;4.72;;;;;;;20.28;73.77;101488.31;4984371;28;20458;-65
2023/05/05 08:24:10;;;;;;;6.15;4.05;;;;;;;20.65;75.64;101490.09;4975625;28;20039;-65
2023/05/05 08:26:35;;;;;;;5.65;4.60;;;;;;;21.00;73.81;101488.34;4979374;28;20424;-65
2023/05/05 08:29:01;;;;;;;5.50;4.00;;;;;;;21.32;69.67;101489.16;4974979;28;20026;-65
2023/05/05 08:31:27;;;;;;;8.98;4.90;;;;;;;21.40;68.87;101489.13;4980327;28;20026;-65
2023/05/05 08:33:53;;;;;;;3.97;3.53;;;;;;;21.39;67.29;101495.31;4974221;28;20030;-65
2023/05/05 08:36:18;;;;;;;4.93;4.28;;;;;;;21.26;67.19;101497.97;4973579;28;20030;-65
2023/05/05 08:38:44;;;;;;;5.15;4.03;;;;;;;21.07;67.15;101487.47;4955614;28;20538;-65
2023/05/05 08:41:12;;;;;;;6.10;3.53;;;;;;;20.94;70.48;101498.88;4976648;28;20513;-65
2023/05/05 08:43:38;;;;;;;6.70;4.30;;;;;;;20.82;71.93;101500.63;4969833;28;20027;-65
2023/05/05 08:46:04;;;;;;;5.43;4.07;;;;;;;20.61;70.26;101505.03;4979701;28;20038;-65
2023/05/05 08:48:32;;;;;;;6.20;4.43;;;;;;;20.43;72.17;101494.47;4978061;28;20041;-64
2023/05/05 08:50:58;;;;;;;7.85;4.72;;;;;;;20.23;74.57;101495.31;4976799;28;20114;-65
2023/05/05 08:54:04;;;;;;;5.53;4.82;;;;;;;20.04;77.38;101490.84;4968867;28;20034;-65
2023/05/05 08:56:38;;;;;;;6.82;5.05;;;;;;;19.95;79.20;101496.06;4979530;28;20101;-65
2023/05/05 08:59:04;;;;;;;5.32;4.43;;;;;;;19.87;76.87;101500.44;4973168;28;20054;-65
2023/05/05 09:01:32;;;;;;;6.35;5.00;;;;;;;19.79;79.85;101495.16;4969869;28;20101;-65
2023/05/05 09:03:58;;;;;;;5.10;4.60;;;;;;;19.76;81.98;101498.66;4970621;28;20027;-65
2023/05/05 09:06:26;;;;;;;5.53;4.00;;;;;;;19.74;80.16;101491.63;4970107;28;20109;-65
2023/05/05 09:08:52;;;;;;;5.43;3.92;;;;;;;19.74;80.66;101491.63;4979665;28;20081;-66
2023/05/05 09:11:17;;;;;;;8.20;4.25;;;;;;;19.80;83.15;101489.91;4986791;28;20018;-65
2023/05/05 09:13:43;;;;;;;6.05;4.30;;;;;;;19.86;81.16;101489.03;4971468;28;20235;-65
2023/05/05 09:16:08;;;;;;;7.22;4.28;;;;;;;19.90;82.64;101492.56;4978272;28;20212;-65
2023/05/05 09:18:36;;;;;;;6.47;3.90;;;;;;;19.92;81.13;101496.97;4991577;28;20238;-65
2023/05/05 09:21:18;;;;;;;5.60;3.72;;;;;;;19.99;79.89;101496.97;4986242;28;20416;-65
2023/05/05 09:24:06;;;;;;;7.40;3.72;;;;;;;20.08;81.67;101497.03;4967213;28;20442;-65
2023/05/05 09:26:40;;;;;;;4.90;3.50;;;;;;;20.07;77.63;101505.81;4985141;28;20042;-65
2023/05/05 09:29:06;;;;;;;3.65;3.03;;;;;;;20.06;81.69;101504.03;4964734;28;20040;-65
2023/05/05 09:31:32;;;;;;;3.85;3.03;;;;;;;20.05;82.98;101497.03;4983819;28;20023;-65
2023/05/05 09:33:59;;;;;;;6.68;3.05;;;;;;;20.02;81.12;101507.53;4979714;28;20033;-65
2023/05/05 09:36:47;;;;;;;3.42;3.10;;;;;;;19.94;79.15;101509.22;4982104;28;20030;-65
2023/05/05 09:39:17;;;;;;;4.70;2.83;;;;;;;19.85;81.33;101508.34;4975065;28;20030;-65
2023/05/05 09:41:43;;;;;;;6.82;2.97;;;;;;;19.76;79.03;101501.28;4977129;28;20030;-65
2023/05/05 09:44:09;;;;;;;5.93;2.95;;;;;;;19.68;79.63;101503.88;4975852;28;20391;-65
2023/05/05 09:46:35;;;;;;;4.72;2.75;;;;;;;19.58;79.99;101495.94;4975529;28;20034;-65
2023/05/05 09:49:18;;;;;;;5.07;3.15;;;;;;;19.50;79.45;101494.16;4977217;28;20026;-65
2023/05/05 09:51:46;;;;;;;3.90;2.97;;;;;;;19.44;79.80;101495.03;4980160;28;20015;-65
2023/05/05 09:54:26;;;;;;;4.85;2.38;;;;;;;19.34;81.75;101498.44;4980190;28;20030;-64
2023/05/05 09:56:52;;;;;;;5.28;3.05;;;;;;;19.27;80.01;101492.28;4977769;28;20034;-64
2023/05/05 09:59:18;;;;;;;5.53;2.22;;;;;;;19.24;80.10;101491.38;4986242;28;20058;-65
2023/05/05 10:01:43;;;;;;;3.67;2.22;;;;;;;19.19;78.96;101488.75;4978892;28;20037;-65
2023/05/05 10:04:29;;;;;;;4.55;3.15;;;;;;;19.09;76.10;101487.75;4982623;28;20026;-65
2023/05/05 10:06:56;;;;;;;4.00;2.80;;;;;;;19.09;77.33;101493.00;4977531;28;20433;-65
2023/05/05 10:09:25;;;;;;;5.70;3.50;;;;;;;19.12;82.09;101492.19;4977974;28;20027;-65
2023/05/05 10:11:51;;;;;;;3.55;3.17;;;;;;;19.13;81.20;101488.69;4984953;28;20069;-65
2023/05/05 10:14:16;;;;;;;3.40;2.75;;;;;;;19.14;80.67;101486.06;4980825;28;20030;-65
2023/05/05 10:16:59;;;;;;;4.40;2.53;;;;;;;19.14;79.86;101493.94;4981340;28;20049;-65
2023/05/05 10:19:27;;;;;;;3.33;3.00;;;;;;;19.11;77.67;101485.13;4984344;28;20037;-64
2023/05/05 10:21:56;;;;;;;4.30;2.70;;;;;;;19.06;78.39;101488.63;4987804;28;20092;-65
2023/05/05 10:24:49;;;;;;;3.40;2.80;;;;;;;18.98;78.34;101492.06;4982549;28;20105;-65
2023/05/05 10:27:18;;;;;;;4.85;4.05;;;;;;;18.90;80.33;101484.13;4974910;28;20470;-65
2023/05/05 10:39:51;;;;;;;9.43;5.18;;;;;;;17.90;100.00;101501.50;4977271;28;20100;-65
2023/05/05 10:42:18;;;;;;;8.70;5.45;;;;;;;17.69;100.00;101500.38;4987098;28;20124;-65
2023/05/05 10:44:43;;;;;;;8.32;4.82;;;;;;;17.57;100.00;101508.97;4988815;28;20027;-65
2023/05/05 10:47:09;;;;;;;5.82;3.90;;;;;;;17.47;100.00;101519.31;4989301;28;20057;-65
2023/05/05 10:49:58;;;;;;;5.97;3.90;;;;;;;17.40;100.00;101512.22;4989115;28;20133;-64
2023/05/05 10:52:40;;;;;;;5.15;3.80;;;;;;;17.35;100.00;101509.53;4982864;28;20030;-65
2023/05/05 10:55:23;;;;;;;6.07;4.43;;;;;;;17.33;100.00;101510.38;4987552;28;20034;-65
2023/05/05 10:57:52;;;;;;;9.38;6.18;;;;;;;17.26;100.00;101505.06;4986525;28;20141;-65
2023/05/05 11:00:35;;;;;;;8.50;5.70;;;;;;;17.25;100.00;101507.66;4981448;28;20034;-65
2023/05/05 11:03:16;;;;;;;9.13;5.72;;;;;;;17.20;100.00;101504.94;4986762;28;20042;-65
2023/05/05 11:06:03;;;;;;;8.63;5.72;;;;;;;17.18;100.00;101511.91;4979130;28;20110;-64
2023/05/05 11:08:31;;;;;;;9.40;6.18;;;;;;;17.11;100.00;101517.88;4984811;28;20035;-66
2023/05/05 11:10:57;;;;;;;7.97;6.68;;;;;;;17.04;100.00;101516.88;4978662;28;20534;-65
2023/05/05 11:13:23;;;;;;;9.57;6.57;;;;;;;16.97;100.00;101513.28;4976193;28;20031;-65
2023/05/05 11:15:50;;;;;;;8.63;6.82;;;;;;;16.87;100.00;101524.47;4979804;28;20472;-65
2023/05/05 11:18:35;;;;;;;10.30;7.50;;;;;;;16.75;100.00;101522.50;4978889;28;20026;-64
2023/05/05 11:21:06;;;;;;;8.50;5.95;;;;;;;16.65;100.00;101527.63;4980520;28;20212;-65
2023/05/05 11:23:32;;;;;;;5.93;5.00;;;;;;;16.53;100.00;101524.78;4978231;28;20053;-64
2023/05/05 11:25:58;;;;;;;8.05;4.80;;;;;;;16.43;100.00;101531.56;4978137;28;20145;-65